Time;durP1;ratioP1;P1;durP2;ratioP2;P2;SDS_P1;SDS_P2;PMS_P1;PMS_P2;Temp;Humidity;BMP_temperature;BMP_pressure;BME280_temperature;BME280_humidity;BME280_pressure;Samples;Min_cycle;Max_cycle;Signal;HPM_P1;HPM_P2
2021/04/24 00:00:38;;;;;;;12.43;4.00;;;8.50;81.90;;;;;;5019453;28;20030;-84
2021/04/24 00:03:04;;;;;;;6.72;3.53;;;8.50;81.80;;;;;;5037360;28;20071;-84
2021/04/24 00:05:35;;;;;;;6.93;3.22;;;8.60;82.70;;;;;;5037056;28;20032;-84
2021/04/24 00:08:06;;;;;;;7.70;4.13;;;8.60;82.20;;;;;;5037327;28;20025;-84
2021/04/24 00:10:37;;;;;;;11.98;4.22;;;8.50;80.60;;;;;;5037188;28;20473;-84
2021/04/24 00:13:04;;;;;;;8.32;3.42;;;8.30;82.30;;;;;;5037509;28;20013;-84
2021/04/24 00:15:30;;;;;;;7.00;3.25;;;8.30;84.20;;;;;;5019157;28;20120;-84
2021/04/24 00:17:56;;;;;;;10.70;4.00;;;8.30;83.30;;;;;;5036813;28;20025;-84
2021/04/24 00:20:23;;;;;;;11.00;3.88;;;8.10;82.30;;;;;;5019109;28;20029;-85
2021/04/24 00:22:50;;;;;;;9.77;3.95;;;8.00;83.40;;;;;;5036768;28;20108;-84
2021/04/24 00:25:16;;;;;;;10.18;3.95;;;8.10;83.70;;;;;;5036962;28;20037;-84
2021/04/24 00:27:42;;;;;;;6.65;3.30;;;8.30;82.50;;;;;;5018871;28;20036;-84
2021/04/24 00:30:10;;;;;;;8.50;3.72;;;7.90;82.80;;;;;;5036813;28;20026;-84
2021/04/24 00:32:38;;;;;;;9.32;3.60;;;7.80;84.50;;;;;;5018774;28;20072;-84
2021/04/24 00:35:04;;;;;;;11.95;3.70;;;8.00;85.20;;;;;;5018665;28;20047;-84
2021/04/24 00:37:30;;;;;;;7.28;3.60;;;8.10;85.20;;;;;;5018690;28;20442;-84
2021/04/24 00:39:56;;;;;;;9.60;4.00;;;7.90;82.30;;;;;;5018640;28;20068;-84
2021/04/24 00:42:22;;;;;;;10.27;3.70;;;7.90;85.10;;;;;;5018620;28;20022;-84
2021/04/24 00:44:50;;;;;;;7.63;3.75;;;7.90;84.70;;;;;;5036155;28;20052;-84
2021/04/24 00:47:20;;;;;;;10.50;3.50;;;8.00;84.30;;;;;;5036553;28;20025;-84
2021/04/24 00:49:46;;;;;;;9.32;3.20;;;8.00;85.50;;;;;;5018447;28;20033;-84
2021/04/24 00:52:13;;;;;;;5.80;3.47;;;8.00;84.40;;;;;;5018438;28;20389;-84
2021/04/24 00:54:39;;;;;;;7.25;3.97;;;8.00;84.30;;;;;;5018431;28;20026;-84
2021/04/24 00:57:06;;;;;;;6.85;3.65;;;7.70;85.10;;;;;;5036159;28;20037;-84
2021/04/24 00:59:33;;;;;;;8.25;3.20;;;7.90;85.80;;;;;;5035218;28;20029;-84
2021/04/24 01:02:00;;;;;;;6.05;3.40;;;8.10;86.10;;;;;;5018233;28;20035;-84
2021/04/24 01:04:26;;;;;;;8.60;3.28;;;8.10;85.20;;;;;;5036026;28;20366;-84
2021/04/24 01:06:52;;;;;;;6.13;3.22;;;8.00;84.70;;;;;;5035942;28;20108;-83
2021/04/24 01:09:17;;;;;;;7.53;3.50;;;8.00;84.00;;;;;;5035837;28;20030;-84
2021/04/24 01:11:43;;;;;;;7.72;4.03;;;7.80;84.70;;;;;;5018116;28;20048;-84
2021/04/24 01:14:09;;;;;;;8.95;4.05;;;7.90;83.60;;;;;;5018107;28;20025;-84
2021/04/24 01:16:34;;;;;;;8.80;3.20;;;8.00;85.20;;;;;;5018046;28;20496;-84
2021/04/24 01:19:00;;;;;;;6.38;3.40;;;8.20;85.80;;;;;;5017954;28;20017;-84
2021/04/24 01:21:27;;;;;;;7.60;3.30;;;7.90;84.00;;;;;;5017965;28;20036;-84
2021/04/24 01:23:54;;;;;;;8.45;3.42;;;7.90;85.10;;;;;;5035614;28;20061;-84
2021/04/24 01:26:20;;;;;;;11.15;3.80;;;7.90;84.70;;;;;;5017860;28;20025;-84
2021/04/24 01:28:46;;;;;;;5.60;3.35;;;7.90;86.00;;;;;;5017836;28;20384;-84
2021/04/24 01:31:14;;;;;;;6.50;3.33;;;7.80;84.50;;;;;;5017703;28;20112;-84
2021/04/24 01:33:40;;;;;;;5.40;3.42;;;7.90;85.40;;;;;;5017943;28;20473;-84
2021/04/24 01:36:05;;;;;;;8.27;3.70;;;7.90;85.70;;;;;;5035408;28;20022;-84
2021/04/24 01:38:32;;;;;;;8.25;4.32;;;7.90;85.80;;;;;;5017503;28;20600;-84
2021/04/24 01:40:59;;;;;;;8.65;4.18;;;7.80;86.00;;;;;;5017553;28;20174;-84
2021/04/24 01:43:25;;;;;;;7.03;3.75;;;7.80;84.90;;;;;;5018692;28;20025;-84
2021/04/24 01:45:50;;;;;;;6.53;3.75;;;7.90;86.20;;;;;;5017290;28;20413;-84
2021/04/24 01:48:16;;;;;;;10.50;3.63;;;7.80;85.00;;;;;;5017411;28;20032;-84
2021/04/24 01:50:45;;;;;;;6.93;3.67;;;7.60;85.40;;;;;;5035084;28;20029;-84
2021/04/24 01:53:15;;;;;;;9.23;4.00;;;7.60;87.00;;;;;;5035421;28;20022;-84
2021/04/24 01:55:42;;;;;;;9.25;3.65;;;7.90;87.10;;;;;;5036043;28;20022;-84
2021/04/24 01:58:10;;;;;;;8.50;3.92;;;7.90;85.40;;;;;;5017357;28;20465;-84
2021/04/24 02:00:43;;;;;;;17.08;4.18;;;7.70;86.10;;;;;;5017133;28;20129;-84
2021/04/24 02:03:13;;;;;;;7.05;3.67;;;7.80;85.40;;;;;;5034955;28;20096;-84
2021/04/24 02:05:40;;;;;;;6.10;3.40;;;7.80;85.40;;;;;;5017926;28;20095;-84
2021/04/24 02:08:17;;;;;;;10.10;4.13;;;7.50;88.20;;;;;;5034842;28;20075;-84
2021/04/24 02:10:46;;;;;;;9.63;3.42;;;7.50;87.10;;;;;;5034531;28;20029;-84
2021/04/24 02:13:16;;;;;;;5.45;3.42;;;7.70;87.60;;;;;;5034681;28;20028;-84
2021/04/24 02:15:42;;;;;;;6.78;3.33;;;7.60;87.60;;;;;;5016923;28;20083;-84
2021/04/24 02:18:08;;;;;;;8.90;4.00;;;7.50;87.20;;;;;;5016805;28;20391;-84
2021/04/24 02:20:36;;;;;;;8.30;3.88;;;7.70;87.10;;;;;;5016799;28;20392;-84
2021/04/24 02:23:02;;;;;;;11.23;3.60;;;7.60;86.50;;;;;;5034524;28;20092;-84
2021/04/24 02:25:28;;;;;;;6.32;3.53;;;7.40;88.70;;;;;;5016973;28;20531;-84
2021/04/24 02:27:55;;;;;;;4.65;3.38;;;7.60;88.20;;;;;;5034438;28;20033;-84
2021/04/24 02:30:21;;;;;;;8.52;3.70;;;7.70;87.20;;;;;;5034318;28;20389;-84
2021/04/24 02:32:47;;;;;;;8.07;3.97;;;7.80;85.80;;;;;;5034380;28;20436;-84
2021/04/24 02:35:18;;;;;;;10.00;3.92;;;7.70;85.90;;;;;;5034584;28;20028;-84
2021/04/24 02:37:44;;;;;;;8.52;3.78;;;7.60;87.70;;;;;;5016411;28;20022;-84
2021/04/24 02:40:17;;;;;;;7.55;3.50;;;7.30;86.40;;;;;;5016472;28;20056;-84
2021/04/24 02:42:44;;;;;;;8.05;3.90;;;7.30;88.40;;;;;;5016374;28;20022;-84
2021/04/24 02:45:11;;;;;;;9.65;4.18;;;7.50;88.50;;;;;;5016550;28;20065;-84
2021/04/24 02:47:37;;;;;;;10.48;3.97;;;7.80;87.50;;;;;;5033988;28;20026;-84
2021/04/24 02:50:07;;;;;;;6.82;3.53;;;7.50;86.30;;;;;;5016203;28;20083;-84
2021/04/24 02:52:33;;;;;;;12.13;3.45;;;7.30;87.40;;;;;;5016556;28;20025;-84
2021/04/24 02:54:59;;;;;;;10.88;3.85;;;7.30;88.00;;;;;;5016189;28;20025;-84
2021/04/24 02:57:25;;;;;;;9.90;3.83;;;7.40;86.70;;;;;;5033906;28;20473;-84
2021/04/24 02:59:51;;;;;;;9.07;4.05;;;7.40;88.30;;;;;;5033819;28;20036;-84
2021/04/24 03:02:17;;;;;;;7.25;4.05;;;7.40;87.60;;;;;;5033835;28;20034;-84
2021/04/24 03:04:43;;;;;;;9.48;4.22;;;7.10;87.10;;;;;;5033782;28;20118;-84
2021/04/24 03:07:09;;;;;;;12.27;4.30;;;6.90;88.70;;;;;;5016028;28;20059;-84
2021/04/24 03:09:35;;;;;;;7.50;4.03;;;6.90;89.00;;;;;;5033687;28;20029;-84
2021/04/24 03:12:01;;;;;;;7.68;4.20;;;6.90;89.00;;;;;;5033643;28;20024;-84
2021/04/24 03:14:27;;;;;;;11.02;4.22;;;7.00;88.80;;;;;;5033670;28;20028;-84
2021/04/24 03:16:53;;;;;;;7.85;3.90;;;7.10;89.90;;;;;;5033584;28;20025;-84
2021/04/24 03:19:18;;;;;;;6.85;3.80;;;7.00;88.90;;;;;;5033527;28;20060;-84
2021/04/24 03:21:44;;;;;;;5.35;3.75;;;7.10;89.00;;;;;;5015250;28;20499;-84
2021/04/24 03:24:10;;;;;;;8.05;4.40;;;7.30;89.80;;;;;;5015812;28;20029;-84
2021/04/24 03:26:35;;;;;;;8.90;3.92;;;7.10;88.60;;;;;;5033479;28;20416;-84
2021/04/24 03:29:01;;;;;;;6.88;3.67;;;6.80;89.80;;;;;;5033702;28;20100;-84
2021/04/24 03:31:28;;;;;;;5.45;3.65;;;6.90;90.00;;;;;;5015619;28;20457;-84
2021/04/24 03:33:54;;;;;;;7.15;4.25;;;6.80;90.30;;;;;;5015624;28;20032;-84
2021/04/24 03:36:19;;;;;;;10.65;4.13;;;6.80;89.60;;;;;;5033375;28;20396;-84
2021/04/24 03:38:45;;;;;;;10.43;3.92;;;7.00;89.90;;;;;;5033262;28;20018;-84
2021/04/24 03:41:11;;;;;;;10.15;3.50;;;7.10;90.50;;;;;;5033562;28;20108;-84
2021/04/24 03:43:37;;;;;;;8.85;4.47;;;7.10;88.90;;;;;;5033290;28;20026;-84
2021/04/24 03:46:03;;;;;;;8.05;4.32;;;7.10;88.60;;;;;;5015418;28;20095;-84
2021/04/24 03:48:30;;;;;;;10.60;4.35;;;6.80;89.80;;;;;;5015518;28;20037;-85
2021/04/24 03:50:56;;;;;;;6.80;3.80;;;6.80;94.20;;;;;;5033382;28;20029;-84
2021/04/24 03:53:22;;;;;;;7.25;3.70;;;7.00;90.50;;;;;;5033179;28;20022;-84
2021/04/24 03:55:48;;;;;;;5.88;3.60;;;7.00;90.10;;;;;;5015441;28;20021;-84
2021/04/24 03:58:14;;;;;;;7.43;4.07;;;7.10;90.10;;;;;;5015388;28;20558;-84
2021/04/24 04:00:39;;;;;;;8.02;4.00;;;7.20;89.70;;;;;;5033081;28;20501;-84
2021/04/24 04:03:07;;;;;;;26.70;9.27;;;7.10;89.80;;;;;;5033031;28;20116;-84
2021/04/24 04:05:47;;;;;;;10.20;5.05;;;7.00;91.30;;;;;;5033343;28;20095;-84
2021/04/24 04:08:14;;;;;;;8.07;4.53;;;6.90;91.40;;;;;;5015327;28;20034;-84
2021/04/24 04:10:41;;;;;;;11.05;4.57;;;6.70;91.40;;;;;;5032903;28;20035;-84
2021/04/24 04:13:08;;;;;;;8.40;4.35;;;;;;;;;;5015257;28;20022;-84
2021/04/24 04:15:35;;;;;;;8.15;4.40;;;;;;;;;;5032940;28;20029;-84
2021/04/24 04:18:13;;;;;;;12.07;4.53;;;;;;;;;;5015286;28;20377;-84
2021/04/24 04:20:48;;;;;;;12.68;4.45;;;6.80;90.00;;;;;;5015384;28;20029;-84
2021/04/24 04:23:14;;;;;;;10.27;4.50;;;6.60;90.20;;;;;;5015477;28;20414;-84
2021/04/24 04:25:41;;;;;;;8.75;4.15;;;6.80;90.50;;;;;;5015153;28;20034;-84
2021/04/24 04:28:08;;;;;;;8.25;3.80;;;6.80;90.20;;;;;;5032864;28;20446;-84
2021/04/24 04:30:34;;;;;;;8.57;4.40;;;7.10;90.20;;;;;;5032996;28;20025;-84
2021/04/24 04:33:00;;;;;;;9.68;4.50;;;6.90;89.80;;;;;;5034640;28;20481;-84
2021/04/24 04:35:27;;;;;;;8.10;3.95;;;7.10;90.20;;;;;;5018793;28;20503;-85
2021/04/24 04:37:53;;;;;;;8.10;3.70;;;7.20;89.80;;;;;;5018704;28;20022;-84
2021/04/24 04:40:19;;;;;;;6.78;3.58;;;7.10;89.00;;;;;;5018708;28;20025;-84
2021/04/24 04:42:45;;;;;;;10.10;4.07;;;7.10;90.50;;;;;;5036998;28;20416;-84
2021/04/24 04:45:13;;;;;;;10.48;4.53;;;7.10;89.60;;;;;;5018442;28;20053;-84
2021/04/24 04:47:39;;;;;;;18.67;8.93;;;7.00;89.50;;;;;;5036374;28;20056;-84
2021/04/24 04:50:07;;;;;;;10.50;4.55;;;6.90;89.20;;;;;;5036790;28;20422;-85
2021/04/24 04:52:33;;;;;;;8.32;4.38;;;6.90;90.40;;;;;;5018494;28;20396;-84
2021/04/24 04:54:58;;;;;;;8.32;4.25;;;6.80;90.20;;;;;;5036481;28;20143;-85
2021/04/24 04:57:24;;;;;;;10.93;4.43;;;6.80;90.20;;;;;;5036702;28;20380;-84
2021/04/24 04:59:50;;;;;;;9.52;4.68;;;6.90;90.30;;;;;;5036385;28;20025;-84
2021/04/24 05:02:16;;;;;;;10.02;4.03;;;6.90;90.10;;;;;;5018303;28;20412;-84
2021/04/24 05:04:43;;;;;;;8.93;4.63;;;6.70;91.00;;;;;;5036022;28;20033;-84
2021/04/24 05:07:08;;;;;;;8.88;3.97;;;7.00;89.90;;;;;;5018209;28;20075;-84
2021/04/24 05:09:34;;;;;;;8.00;4.05;;;6.90;90.30;;;;;;5035843;28;20026;-84
2021/04/24 05:12:00;;;;;;;9.43;4.55;;;6.70;90.70;;;;;;5035870;28;20068;-84
2021/04/24 05:14:25;;;;;;;8.18;4.28;;;6.70;90.30;;;;;;5035844;28;20017;-84
2021/04/24 05:16:51;;;;;;;10.52;4.22;;;6.70;91.10;;;;;;5035777;28;20472;-84
2021/04/24 05:19:17;;;;;;;8.38;4.13;;;6.60;90.40;;;;;;5017943;28;20500;-84
2021/04/24 05:21:42;;;;;;;9.18;3.78;;;6.80;91.10;;;;;;5018031;28;20064;-84
2021/04/24 05:24:09;;;;;;;13.35;4.53;;;6.60;90.50;;;;;;5035689;28;20022;-85
2021/04/24 05:26:34;;;;;;;6.45;4.13;;;6.60;90.80;;;;;;5035566;28;20026;-84
2021/04/24 05:29:00;;;;;;;10.70;4.20;;;6.60;91.00;;;;;;5035529;28;20500;-84
2021/04/24 05:31:27;;;;;;;7.60;4.45;;;7.00;91.10;;;;;;5035482;28;20022;-84
2021/04/24 05:33:54;;;;;;;8.95;4.88;;;7.00;90.60;;;;;;5035503;28;20025;-84
2021/04/24 05:36:20;;;;;;;10.73;4.47;;;7.10;90.70;;;;;;5017662;28;20023;-84
2021/04/24 05:38:48;;;;;;;7.63;4.40;;;7.30;90.30;;;;;;5035353;28;20026;-84
2021/04/24 05:41:20;;;;;;;6.35;3.70;;;7.40;90.30;;;;;;5017599;28;20403;-84
2021/04/24 05:43:46;;;;;;;13.57;4.88;;;7.40;90.20;;;;;;5034655;28;20064;-84
2021/04/24 05:46:12;;;;;;;10.10;4.57;;;7.50;89.70;;;;;;5035179;28;20037;-84
2021/04/24 05:48:38;;;;;;;10.32;5.00;;;7.40;90.30;;;;;;5017407;28;20029;-84
2021/04/24 05:51:03;;;;;;;10.32;4.63;;;7.30;90.20;;;;;;5035325;28;20029;-84
2021/04/24 05:53:29;;;;;;;7.72;4.47;;;7.20;90.40;;;;;;5035122;28;20381;-84
2021/04/24 05:55:55;;;;;;;10.20;4.82;;;7.40;90.80;;;;;;5035086;28;20075;-84
2021/04/24 05:58:20;;;;;;;11.00;5.40;;;7.50;90.60;;;;;;5017303;28;20052;-84
2021/04/24 06:00:46;;;;;;;8.05;3.97;;;7.60;90.50;;;;;;5034955;28;20032;-84
2021/04/24 06:03:12;;;;;;;11.02;4.90;;;7.60;90.60;;;;;;5017165;28;20462;-84
2021/04/24 06:05:37;;;;;;;8.55;4.47;;;7.70;90.20;;;;;;5017098;28;20026;-84
2021/04/24 06:08:03;;;;;;;10.85;5.07;;;7.80;90.40;;;;;;5034814;28;20083;-84
2021/04/24 06:10:29;;;;;;;8.50;4.85;;;7.80;91.00;;;;;;5034714;28;20029;-84
2021/04/24 06:12:55;;;;;;;8.10;4.38;;;7.90;90.50;;;;;;5034717;28;20108;-84
2021/04/24 06:15:21;;;;;;;8.45;4.80;;;8.00;90.60;;;;;;5016971;28;20032;-84
2021/04/24 06:17:47;;;;;;;8.70;4.50;;;7.90;90.60;;;;;;5034608;28;20108;-84
2021/04/24 06:20:13;;;;;;;6.30;4.00;;;8.00;90.60;;;;;;5034624;28;20064;-84
2021/04/24 06:22:40;;;;;;;10.55;4.75;;;8.10;90.40;;;;;;5016710;28;20424;-84
2021/04/24 06:25:09;;;;;;;10.07;4.40;;;8.20;90.50;;;;;;5016650;28;20025;-84
2021/04/24 06:27:35;;;;;;;9.55;4.57;;;8.30;90.40;;;;;;5034625;28;20033;-84
2021/04/24 06:30:01;;;;;;;10.27;4.43;;;8.30;90.50;;;;;;5034505;28;20030;-84
2021/04/24 06:32:27;;;;;;;9.43;4.47;;;8.40;90.60;;;;;;5016574;28;20507;-84
2021/04/24 06:34:53;;;;;;;6.47;4.60;;;8.50;90.50;;;;;;5017316;28;20025;-84
2021/04/24 06:37:18;;;;;;;9.05;4.60;;;8.50;90.80;;;;;;5034772;28;20025;-84
2021/04/24 06:39:44;;;;;;;7.53;4.55;;;8.60;90.60;;;;;;5034118;28;20052;-84
2021/04/24 06:42:10;;;;;;;9.65;4.05;;;8.70;90.70;;;;;;5034743;28;20033;-84
2021/04/24 06:44:36;;;;;;;12.40;4.40;;;8.70;90.50;;;;;;5033973;28;20054;-84
2021/04/24 06:47:01;;;;;;;8.52;4.35;;;8.90;90.40;;;;;;5016649;28;20033;-85
2021/04/24 06:49:27;;;;;;;13.02;5.03;;;9.00;90.20;;;;;;5034243;28;20028;-85
2021/04/24 06:51:53;;;;;;;12.15;5.28;;;9.00;90.50;;;;;;5034264;28;20428;-84
2021/04/24 06:54:19;;;;;;;11.80;4.68;;;9.20;90.00;;;;;;5016202;28;20107;-86
2021/04/24 06:56:44;;;;;;;12.23;4.68;;;9.40;89.70;;;;;;5015557;28;20112;-86
2021/04/24 06:59:10;;;;;;;8.50;4.38;;;9.40;89.70;;;;;;5034077;28;20493;-86
2021/04/24 07:01:36;;;;;;;11.50;4.97;;;9.50;89.60;;;;;;5033844;28;20104;-86
2021/04/24 07:04:02;;;;;;;13.23;4.70;;;9.60;89.50;;;;;;5016039;28;20036;-86
2021/04/24 07:06:29;;;;;;;11.98;5.20;;;9.70;90.00;;;;;;5034110;28;20021;-86
2021/04/24 07:08:55;;;;;;;8.77;3.85;;;9.80;89.00;;;;;;5033713;28;20104;-86
2021/04/24 07:11:20;;;;;;;10.77;4.93;;;10.00;88.40;;;;;;5015888;28;20113;-86
2021/04/24 07:13:46;;;;;;;8.13;4.63;;;10.00;88.20;;;;;;5015900;28;20392;-86
2021/04/24 07:16:13;;;;;;;10.30;4.80;;;10.20;87.60;;;;;;5015868;28;20032;-86
2021/04/24 07:18:40;;;;;;;12.23;5.53;;;10.30;87.70;;;;;;5033577;28;20052;-86
2021/04/24 07:21:06;;;;;;;12.63;5.15;;;10.30;87.00;;;;;;5033553;28;20100;-86
2021/04/24 07:23:33;;;;;;;16.25;6.05;;;10.50;86.20;;;;;;5016036;28;20029;-86
2021/04/24 07:25:59;;;;;;;12.35;6.05;;;10.50;85.40;;;;;;5033520;28;20101;-86
2021/04/24 07:28:25;;;;;;;14.05;6.05;;;10.60;84.00;;;;;;5016044;28;20036;-85
2021/04/24 07:30:51;;;;;;;13.43;6.20;;;10.80;83.40;;;;;;5033247;28;20021;-86
2021/04/24 07:33:17;;;;;;;11.95;5.90;;;10.90;81.70;;;;;;5015582;28;20029;-85
2021/04/24 07:35:42;;;;;;;15.38;5.55;;;11.00;80.10;;;;;;5015636;28;20073;-86
2021/04/24 07:38:08;;;;;;;13.30;6.50;;;11.10;81.10;;;;;;5015549;28;20060;-86
2021/04/24 07:40:34;;;;;;;11.55;6.55;;;11.30;80.60;;;;;;5015561;28;20033;-86
2021/04/24 07:42:59;;;;;;;11.85;6.07;;;11.40;79.00;;;;;;5015584;28;20029;-86
2021/04/24 07:45:25;;;;;;;12.82;5.38;;;11.50;79.00;;;;;;5015494;28;20052;-86
2021/04/24 07:47:51;;;;;;;12.63;6.15;;;11.60;79.20;;;;;;5015434;28;20021;-86
2021/04/24 07:50:18;;;;;;;12.45;5.93;;;11.80;77.10;;;;;;5015442;28;20033;-86
2021/04/24 07:52:47;;;;;;;15.18;6.82;;;11.90;76.50;;;;;;5015429;28;20025;-86
2021/04/24 07:55:13;;;;;;;10.40;4.60;;;12.10;75.30;;;;;;5015407;28;20155;-86
2021/04/24 07:57:39;;;;;;;18.92;7.03;;;12.10;76.10;;;;;;5015416;28;20022;-86
2021/04/24 08:00:08;;;;;;;15.65;6.03;;;12.20;74.60;;;;;;5015401;28;20099;-86
2021/04/24 08:02:33;;;;;;;15.65;6.22;;;12.30;75.00;;;;;;5015939;28;20036;-86
2021/04/24 08:04:59;;;;;;;13.65;5.68;;;12.40;73.00;;;;;;5015342;28;20034;-86
2021/04/24 08:07:25;;;;;;;14.95;6.25;;;12.50;73.30;;;;;;5016314;28;20116;-86
2021/04/24 08:09:51;;;;;;;19.90;6.95;;;12.70;73.80;;;;;;5019285;28;20032;-83
2021/04/24 08:12:17;;;;;;;17.30;7.00;;;12.90;73.50;;;;;;5037103;28;20469;-86
2021/04/24 08:14:43;;;;;;;15.90;6.32;;;13.10;72.90;;;;;;5019340;28;20032;-86
2021/04/24 08:17:08;;;;;;;13.13;6.50;;;13.20;72.60;;;;;;5019301;28;20029;-86
2021/04/24 08:19:34;;;;;;;15.45;6.25;;;13.40;72.50;;;;;;5037152;28;20071;-86
2021/04/24 08:22:00;;;;;;;20.65;6.63;;;13.50;71.10;;;;;;5019131;28;20026;-86
2021/04/24 08:24:26;;;;;;;14.45;5.88;;;13.60;70.90;;;;;;5037052;28;20025;-86
2021/04/24 08:26:52;;;;;;;12.98;6.10;;;13.60;67.80;;;;;;5036876;28;20108;-86
2021/04/24 08:29:18;;;;;;;13.15;6.43;;;13.50;69.30;;;;;;5018978;28;20048;-86
2021/04/24 08:31:45;;;;;;;16.60;5.68;;;13.70;69.00;;;;;;5018838;28;20037;-86
2021/04/24 08:34:11;;;;;;;17.63;6.90;;;13.90;70.00;;;;;;5018908;28;20033;-86
2021/04/24 08:36:37;;;;;;;12.57;6.00;;;14.00;68.70;;;;;;5018815;28;20036;-86
2021/04/24 08:39:05;;;;;;;14.80;6.35;;;14.20;68.80;;;;;;5018670;28;20021;-86
2021/04/24 08:41:32;;;;;;;14.00;6.10;;;14.20;65.80;;;;;;5036550;28;20506;-86
2021/04/24 08:43:58;;;;;;;14.52;6.80;;;14.30;66.40;;;;;;5036388;28;20358;-86
2021/04/24 08:46:25;;;;;;;13.15;6.43;;;14.50;65.80;;;;;;5018738;28;20025;-87
2021/04/24 08:48:52;;;;;;;12.10;6.05;;;14.70;64.90;;;;;;5036421;28;20465;-86
2021/04/24 08:51:20;;;;;;;14.95;7.10;;;14.70;63.90;;;;;;5018447;28;20488;-86
2021/04/24 08:53:46;;;;;;;15.93;6.65;;;14.60;63.60;;;;;;5036010;28;20017;-86
2021/04/24 08:56:12;;;;;;;14.23;6.60;;;14.80;64.00;;;;;;5018283;28;20033;-86
2021/04/24 08:58:37;;;;;;;9.73;5.35;;;14.90;63.00;;;;;;5018494;28;20389;-86
2021/04/24 09:01:04;;;;;;;14.93;6.13;;;15.10;63.70;;;;;;5036311;28;20473;-86
2021/04/24 09:03:29;;;;;;;11.40;6.47;;;15.10;63.60;;;;;;5018431;28;20167;-85
2021/04/24 09:05:55;;;;;;;15.57;7.25;;;15.30;61.70;;;;;;5018560;28;20108;-85
2021/04/24 09:08:26;;;;;;;13.73;5.75;;;15.40;61.40;;;;;;5036044;28;20369;-86
2021/04/24 09:10:59;;;;;;;10.65;6.15;;;15.50;61.80;;;;;;5018354;28;20029;-86
2021/04/24 09:13:27;;;;;;;15.93;6.18;;;15.60;61.20;;;;;;5018196;28;20021;-86
2021/04/24 09:15:54;;;;;;;11.88;6.00;;;15.80;61.30;;;;;;5036666;28;20021;-86
2021/04/24 09:18:21;;;;;;;14.02;5.88;;;16.10;59.70;;;;;;5036095;28;20432;-85
2021/04/24 09:20:55;;;;;;;12.70;5.97;;;16.30;58.90;;;;;;5019252;28;20040;-85
2021/04/24 09:23:34;;;;;;;14.48;6.60;;;16.20;58.40;;;;;;5038282;28;20105;-85
2021/04/24 09:26:05;;;;;;;12.90;6.97;;;16.00;57.10;;;;;;5018749;28;20025;-85
2021/04/24 09:28:37;;;;;;;15.27;7.43;;;16.10;56.90;;;;;;5018348;28;20021;-85
2021/04/24 09:31:31;;;;;;;11.88;5.40;;;16.30;58.50;;;;;;5017792;28;20025;-85
2021/04/24 09:34:01;;;;;;;10.90;5.07;;;16.50;55.20;;;;;;5015746;28;20053;-86
2021/04/24 09:36:38;;;;;;;12.85;5.85;;;16.60;55.70;;;;;;5017800;28;20718;-86
2021/04/24 09:39:06;;;;;;;11.45;5.47;;;16.60;55.60;;;;;;5035683;28;20021;-85
2021/04/24 09:41:37;;;;;;;14.50;6.22;;;16.80;54.80;;;;;;5017557;28;20040;-86
2021/04/24 09:44:13;;;;;;;10.80;5.55;;;17.20;54.80;;;;;;5017350;28;20068;-86
2021/04/24 09:46:48;;;;;;;15.05;6.20;;;17.20;55.20;;;;;;5035595;28;20029;-86
2021/04/24 09:49:22;;;;;;;12.98;5.47;;;17.20;54.90;;;;;;5017395;28;20033;-86
2021/04/24 09:51:57;;;;;;;10.95;6.22;;;17.30;55.30;;;;;;5017458;28;20044;-86
2021/04/24 09:54:35;;;;;;;15.15;6.28;;;17.50;54.40;;;;;;5017394;28;20095;-86
2021/04/24 09:57:07;;;;;;;14.70;6.40;;;17.60;57.20;;;;;;5035191;28;20071;-86
2021/04/24 09:59:57;;;;;;;15.05;6.35;;;17.50;54.10;;;;;;5017169;28;20037;-86
2021/04/24 10:02:38;;;;;;;12.18;6.10;;;17.70;51.90;;;;;;5018203;28;20043;-85
2021/04/24 10:05:24;;;;;;;15.18;5.93;;;17.80;52.20;;;;;;5017184;28;20092;-86
2021/04/24 10:07:52;;;;;;;16.50;6.55;;;17.90;52.70;;;;;;5017173;28;20032;-86
2021/04/24 10:10:30;;;;;;;12.32;5.30;;;18.20;51.60;;;;;;5017019;28;20033;-86
2021/04/24 10:13:00;;;;;;;12.52;5.53;;;18.30;52.80;;;;;;5017003;28;20432;-86
2021/04/24 10:15:37;;;;;;;12.60;6.20;;;18.50;51.40;;;;;;5016946;28;20481;-86
2021/04/24 10:18:04;;;;;;;11.70;5.93;;;18.70;51.10;;;;;;5016955;28;20108;-86
2021/04/24 10:20:32;;;;;;;11.75;5.72;;;18.50;51.50;;;;;;5016864;28;20120;-86
2021/04/24 10:23:00;;;;;;;9.27;5.90;;;18.40;51.90;;;;;;5034550;28;20044;-86
2021/04/24 10:25:26;;;;;;;14.02;6.80;;;18.50;51.70;;;;;;5034783;28;20028;-86
2021/04/24 10:27:52;;;;;;;20.70;7.10;;;18.70;50.20;;;;;;5016762;28;20029;-85
2021/04/24 10:30:18;;;;;;;12.80;5.85;;;18.90;48.70;;;;;;5016675;28;20080;-86
2021/04/24 10:32:45;;;;;;;13.57;5.68;;;19.10;48.30;;;;;;5016756;28;20025;-85
2021/04/24 10:35:13;;;;;;;17.27;6.43;;;19.10;48.20;;;;;;5016637;28;20026;-86
2021/04/24 10:37:39;;;;;;;12.02;4.53;;;19.20;48.10;;;;;;5016660;28;20026;-86
2021/04/24 10:40:05;;;;;;;8.90;4.93;;;19.60;48.90;;;;;;5016499;28;20568;-86
2021/04/24 10:42:33;;;;;;;12.48;6.28;;;19.80;48.60;;;;;;5016485;28;20168;-86
2021/04/24 10:45:06;;;;;;;12.02;6.43;;;20.00;46.20;;;;;;5016355;28;20048;-86
2021/04/24 10:47:41;;;;;;;15.13;5.80;;;19.90;45.60;;;;;;5034170;28;20523;-86
2021/04/24 10:50:19;;;;;;;8.45;4.70;;;20.10;47.30;;;;;;5016220;28;20098;-87
2021/04/24 10:52:46;;;;;;;10.10;6.10;;;20.40;48.00;;;;;;5016315;28;20025;-86
2021/04/24 10:55:20;;;;;;;11.10;5.95;;;20.50;45.60;;;;;;5034226;28;20094;-86
2021/04/24 10:57:56;;;;;;;15.05;6.45;;;20.50;45.90;;;;;;5016381;28;20049;-85
2021/04/24 11:00:28;;;;;;;13.07;6.15;;;20.20;44.60;;;;;;5033903;28;20026;-88
2021/04/24 11:03:02;;;;;;;14.50;6.20;;;20.60;45.40;;;;;;5016330;28;20033;-86
2021/04/24 11:05:30;;;;;;;11.63;5.68;;;20.60;45.60;;;;;;5034210;28;20030;-84
2021/04/24 11:08:11;;;;;;;13.10;6.10;;;21.20;45.70;;;;;;5016339;28;20042;-86
2021/04/24 11:10:52;;;;;;;14.98;6.65;;;20.80;45.30;;;;;;5033646;28;20091;-85
2021/04/24 11:13:19;;;;;;;11.02;6.25;;;20.70;43.20;;;;;;5015986;28;20024;-86
2021/04/24 11:15:45;;;;;;;14.10;6.18;;;21.10;43.20;;;;;;5015839;28;20017;-85
2021/04/24 11:18:12;;;;;;;13.25;6.20;;;21.50;43.00;;;;;;5015862;28;20508;-86
2021/04/24 11:20:45;;;;;;;14.77;6.20;;;21.90;42.20;;;;;;5033578;28;20032;-85
2021/04/24 11:23:30;;;;;;;18.15;6.50;;;22.20;42.70;;;;;;5015799;28;20401;-86
2021/04/24 11:26:03;;;;;;;11.32;5.97;;;22.00;41.30;;;;;;5015992;28;20063;-85
2021/04/24 11:28:30;;;;;;;10.13;6.10;;;21.10;41.90;;;;;;5016016;28;20076;-85
2021/04/24 11:31:04;;;;;;;11.70;5.88;;;21.40;42.20;;;;;;5015771;28;20028;-86
2021/04/24 11:33:34;;;;;;;11.27;6.43;;;22.10;41.00;;;;;;5015898;28;20029;-86
2021/04/24 11:36:27;;;;;;;14.93;7.18;;;22.30;42.10;;;;;;5033342;28;20025;-86
2021/04/24 11:41:34;;;;;;;17.80;7.60;;;22.70;42.30;;;;;;5033253;28;20496;-86
2021/04/24 11:44:29;;;;;;;14.48;7.55;;;22.90;42.10;;;;;;5015101;28;20079;-86
2021/04/24 11:46:55;;;;;;;;;;;23.10;41.60;;;;;;5033530;28;20025;-86
2021/04/24 11:49:28;;;;;;;14.52;6.90;;;22.90;41.10;;;;;;5015498;28;19995;-86
2021/04/24 11:51:58;;;;;;;10.57;6.40;;;22.70;39.90;;;;;;5015392;28;20401;-87
2021/04/24 11:54:27;;;;;;;12.63;6.55;;;22.60;42.20;;;;;;5015492;28;20369;-86
2021/04/24 11:56:56;;;;;;;12.80;6.40;;;22.50;43.00;;;;;;5033232;28;20018;-86
2021/04/24 11:59:27;;;;;;;10.23;5.68;;;22.60;42.70;;;;;;5033469;28;20029;-86
2021/04/24 12:01:59;;;;;;;11.75;6.18;;;22.80;40.80;;;;;;5015414;28;20032;-86
2021/04/24 12:04:27;;;;;;;8.73;5.20;;;23.50;40.70;;;;;;5033397;28;20029;-86
2021/04/24 12:07:08;;;;;;;9.65;5.32;;;23.50;41.30;;;;;;5015307;28;20029;-86
2021/04/24 12:09:51;;;;;;;14.93;6.70;;;;;;;;;;5015303;28;20036;-85
2021/04/24 12:12:20;;;;;;;10.05;5.38;;;23.50;37.20;;;;;;5032990;28;20026;-86
2021/04/24 12:14:46;;;;;;;11.93;6.78;;;23.80;40.10;;;;;;5033043;28;20029;-86
2021/04/24 12:17:14;;;;;;;15.75;7.45;;;23.90;40.30;;;;;;5015247;28;20493;-86
2021/04/24 12:19:45;;;;;;;12.25;7.28;;;23.90;40.90;;;;;;5015269;28;20083;-87
2021/04/24 12:22:12;;;;;;;17.55;8.38;;;24.10;39.80;;;;;;5033262;28;20100;-86
2021/04/24 12:24:57;;;;;;;13.48;7.22;;;24.00;38.70;;;;;;5015289;28;20160;-87
2021/04/24 12:27:34;;;;;;;;;;;24.00;39.10;;;;;;5033621;28;20026;-85
2021/04/24 12:30:12;;;;;;;14.65;7.32;;;24.20;38.40;;;;;;5032983;28;19952;-86
2021/04/24 12:32:44;;;;;;;14.27;6.50;;;24.50;38.50;;;;;;5032862;28;20105;-87
2021/04/24 12:35:18;;;;;;;15.18;8.35;;;24.80;39.90;;;;;;5015131;28;20021;-85
2021/04/24 12:37:47;;;;;;;14.98;7.78;;;24.70;39.10;;;;;;5033121;28;20373;-85
2021/04/24 12:40:20;;;;;;;16.00;8.20;;;24.20;40.70;;;;;;5015037;28;20086;-86
2021/04/24 12:42:48;;;;;;;9.73;6.47;;;24.60;40.70;;;;;;5015120;28;20036;-86
2021/04/24 12:45:23;;;;;;;12.55;7.68;;;24.80;40.50;;;;;;5032525;28;20053;-86
2021/04/24 12:47:50;;;;;;;20.55;8.80;;;24.80;38.90;;;;;;5015293;28;20029;-86
2021/04/24 12:50:22;;;;;;;17.25;8.30;;;25.30;38.80;;;;;;5015626;28;20489;-84
2021/04/24 12:52:59;;;;;;;13.48;7.00;;;25.30;39.30;;;;;;5033179;28;20021;-84
2021/04/24 12:55:39;;;;;;;15.13;8.82;;;24.90;39.60;;;;;;5035592;28;20024;-84